sensor_id;sensor_type;location;lat;lon;timestamp;P1;durP1;ratioP1;P2;durP2;ratioP2
38399;SDS011;24180;42.676;23.320;2024-01-07T00:00:27;28.63;;;16.10;;
38399;SDS011;24180;42.676;23.320;2024-01-07T00:02:53;36.10;;;17.35;;
38399;SDS011;24180;42.676;23.320;2024-01-07T00:05:18;49.65;;;18.40;;
38399;SDS011;24180;42.676;23.320;2024-01-07T00:07:44;37.30;;;17.33;;
38399;SDS011;24180;42.676;23.320;2024-01-07T00:10:09;33.40;;;15.95;;
38399;SDS011;24180;42.676;23.320;2024-01-07T00:12:35;31.25;;;14.75;;
38399;SDS011;24180;42.676;23.320;2024-01-07T00:15:00;30.17;;;15.18;;
38399;SDS011;24180;42.676;23.320;2024-01-07T00:17:26;33.53;;;18.25;;
38399;SDS011;24180;42.676;23.320;2024-01-07T00:19:51;30.25;;;16.50;;
38399;SDS011;24180;42.676;23.320;2024-01-07T00:22:17;26.35;;;15.02;;
38399;SDS011;24180;42.676;23.320;2024-01-07T00:24:43;24.70;;;12.55;;
38399;SDS011;24180;42.676;23.320;2024-01-07T00:27:08;26.35;;;15.10;;
38399;SDS011;24180;42.676;23.320;2024-01-07T00:29:34;28.27;;;14.07;;
38399;SDS011;24180;42.676;23.320;2024-01-07T00:32:00;24.58;;;12.82;;
38399;SDS011;24180;42.676;23.320;2024-01-07T00:34:26;25.85;;;13.93;;
38399;SDS011;24180;42.676;23.320;2024-01-07T00:36:52;24.48;;;15.10;;
38399;SDS011;24180;42.676;23.320;2024-01-07T00:39:18;28.38;;;16.08;;
38399;SDS011;24180;42.676;23.320;2024-01-07T00:41:43;25.63;;;14.80;;
38399;SDS011;24180;42.676;23.320;2024-01-07T00:44:09;26.13;;;13.55;;
38399;SDS011;24180;42.676;23.320;2024-01-07T00:46:34;28.23;;;13.40;;
38399;SDS011;24180;42.676;23.320;2024-01-07T00:49:00;26.30;;;13.23;;
38399;SDS011;24180;42.676;23.320;2024-01-07T00:51:25;21.60;;;13.05;;
38399;SDS011;24180;42.676;23.320;2024-01-07T00:53:50;25.00;;;15.07;;
38399;SDS011;24180;42.676;23.320;2024-01-07T00:56:16;26.67;;;14.60;;
38399;SDS011;24180;42.676;23.320;2024-01-07T00:58:41;27.20;;;14.45;;
38399;SDS011;24180;42.676;23.320;2024-01-07T01:01:07;25.40;;;13.85;;
38399;SDS011;24180;42.676;23.320;2024-01-07T01:03:32;29.88;;;14.95;;
38399;SDS011;24180;42.676;23.320;2024-01-07T01:05:58;28.08;;;15.48;;
38399;SDS011;24180;42.676;23.320;2024-01-07T01:08:24;27.73;;;14.60;;
38399;SDS011;24180;42.676;23.320;2024-01-07T01:10:49;19.60;;;12.70;;
38399;SDS011;24180;42.676;23.320;2024-01-07T01:13:14;29.52;;;14.80;;
38399;SDS011;24180;42.676;23.320;2024-01-07T01:15:40;27.02;;;14.38;;
38399;SDS011;24180;42.676;23.320;2024-01-07T01:18:05;25.88;;;15.65;;
38399;SDS011;24180;42.676;23.320;2024-01-07T01:20:31;26.88;;;16.63;;
38399;SDS011;24180;42.676;23.320;2024-01-07T01:22:56;22.02;;;13.38;;
38399;SDS011;24180;42.676;23.320;2024-01-07T01:25:22;24.42;;;14.18;;
38399;SDS011;24180;42.676;23.320;2024-01-07T01:27:47;25.17;;;15.23;;
38399;SDS011;24180;42.676;23.320;2024-01-07T01:30:13;20.25;;;12.93;;
38399;SDS011;24180;42.676;23.320;2024-01-07T01:32:39;27.17;;;16.20;;
38399;SDS011;24180;42.676;23.320;2024-01-07T01:35:05;21.63;;;13.00;;
38399;SDS011;24180;42.676;23.320;2024-01-07T01:37:31;25.30;;;13.82;;
38399;SDS011;24180;42.676;23.320;2024-01-07T01:39:58;26.33;;;14.00;;
38399;SDS011;24180;42.676;23.320;2024-01-07T01:42:24;23.80;;;11.85;;
38399;SDS011;24180;42.676;23.320;2024-01-07T01:44:49;24.70;;;13.57;;
38399;SDS011;24180;42.676;23.320;2024-01-07T01:47:15;25.27;;;12.68;;
38399;SDS011;24180;42.676;23.320;2024-01-07T01:49:41;27.45;;;14.05;;
38399;SDS011;24180;42.676;23.320;2024-01-07T01:52:07;29.42;;;14.85;;
38399;SDS011;24180;42.676;23.320;2024-01-07T01:54:34;22.63;;;12.57;;
38399;SDS011;24180;42.676;23.320;2024-01-07T01:57:00;21.38;;;12.48;;
38399;SDS011;24180;42.676;23.320;2024-01-07T01:59:26;23.33;;;13.43;;
38399;SDS011;24180;42.676;23.320;2024-01-07T02:01:53;24.90;;;13.88;;
38399;SDS011;24180;42.676;23.320;2024-01-07T02:04:20;24.13;;;13.45;;
38399;SDS011;24180;42.676;23.320;2024-01-07T02:06:45;21.05;;;11.68;;
38399;SDS011;24180;42.676;23.320;2024-01-07T02:09:11;26.65;;;14.25;;
38399;SDS011;24180;42.676;23.320;2024-01-07T02:11:37;20.55;;;12.73;;
38399;SDS011;24180;42.676;23.320;2024-01-07T02:14:02;24.73;;;13.27;;
38399;SDS011;24180;42.676;23.320;2024-01-07T02:16:27;22.95;;;13.15;;
38399;SDS011;24180;42.676;23.320;2024-01-07T02:18:53;20.98;;;12.38;;
38399;SDS011;24180;42.676;23.320;2024-01-07T02:21:18;19.55;;;13.07;;
38399;SDS011;24180;42.676;23.320;2024-01-07T02:23:44;21.30;;;12.07;;
38399;SDS011;24180;42.676;23.320;2024-01-07T02:26:09;23.95;;;13.07;;
38399;SDS011;24180;42.676;23.320;2024-01-07T02:28:35;17.95;;;11.07;;
38399;SDS011;24180;42.676;23.320;2024-01-07T02:31:00;20.15;;;11.68;;
38399;SDS011;24180;42.676;23.320;2024-01-07T02:33:26;18.85;;;11.70;;
38399;SDS011;24180;42.676;23.320;2024-01-07T02:35:51;22.65;;;12.07;;
38399;SDS011;24180;42.676;23.320;2024-01-07T02:38:17;19.45;;;12.48;;
38399;SDS011;24180;42.676;23.320;2024-01-07T02:40:42;20.35;;;13.25;;
38399;SDS011;24180;42.676;23.320;2024-01-07T02:43:08;21.75;;;13.35;;
38399;SDS011;24180;42.676;23.320;2024-01-07T02:45:34;21.55;;;12.75;;
38399;SDS011;24180;42.676;23.320;2024-01-07T02:47:59;20.83;;;12.70;;
38399;SDS011;24180;42.676;23.320;2024-01-07T02:50:25;22.17;;;13.73;;
38399;SDS011;24180;42.676;23.320;2024-01-07T02:52:50;20.30;;;13.05;;
38399;SDS011;24180;42.676;23.320;2024-01-07T02:55:16;19.75;;;11.93;;
38399;SDS011;24180;42.676;23.320;2024-01-07T02:57:41;22.70;;;11.82;;
38399;SDS011;24180;42.676;23.320;2024-01-07T03:00:07;26.25;;;13.30;;
38399;SDS011;24180;42.676;23.320;2024-01-07T03:02:33;22.20;;;11.98;;
38399;SDS011;24180;42.676;23.320;2024-01-07T03:04:58;21.48;;;13.18;;
38399;SDS011;24180;42.676;23.320;2024-01-07T03:07:24;20.77;;;11.93;;
38399;SDS011;24180;42.676;23.320;2024-01-07T03:09:50;18.40;;;11.93;;
38399;SDS011;24180;42.676;23.320;2024-01-07T03:12:15;21.15;;;12.55;;
38399;SDS011;24180;42.676;23.320;2024-01-07T03:14:41;25.20;;;12.07;;
38399;SDS011;24180;42.676;23.320;2024-01-07T03:17:07;19.35;;;11.63;;
38399;SDS011;24180;42.676;23.320;2024-01-07T03:19:33;25.90;;;14.73;;
38399;SDS011;24180;42.676;23.320;2024-01-07T03:21:58;24.55;;;13.88;;
38399;SDS011;24180;42.676;23.320;2024-01-07T03:24:23;18.17;;;9.15;;
38399;SDS011;24180;42.676;23.320;2024-01-07T03:26:49;12.18;;;8.23;;
38399;SDS011;24180;42.676;23.320;2024-01-07T03:29:15;14.95;;;9.40;;
38399;SDS011;24180;42.676;23.320;2024-01-07T03:31:40;20.85;;;11.52;;
38399;SDS011;24180;42.676;23.320;2024-01-07T03:34:06;20.00;;;11.88;;
38399;SDS011;24180;42.676;23.320;2024-01-07T03:36:31;21.27;;;11.13;;
38399;SDS011;24180;42.676;23.320;2024-01-07T03:38:57;18.42;;;11.20;;
38399;SDS011;24180;42.676;23.320;2024-01-07T03:41:22;14.93;;;10.25;;
38399;SDS011;24180;42.676;23.320;2024-01-07T03:43:48;22.52;;;11.50;;
38399;SDS011;24180;42.676;23.320;2024-01-07T03:46:14;11.45;;;7.90;;
38399;SDS011;24180;42.676;23.320;2024-01-07T03:48:43;17.20;;;8.52;;
38399;SDS011;24180;42.676;23.320;2024-01-07T03:51:09;14.18;;;8.45;;
38399;SDS011;24180;42.676;23.320;2024-01-07T03:53:35;13.35;;;9.35;;
38399;SDS011;24180;42.676;23.320;2024-01-07T03:56:00;11.30;;;7.32;;
38399;SDS011;24180;42.676;23.320;2024-01-07T03:58:26;8.70;;;6.47;;
38399;SDS011;24180;42.676;23.320;2024-01-07T04:00:51;6.97;;;5.38;;
38399;SDS011;24180;42.676;23.320;2024-01-07T04:03:17;5.97;;;4.78;;
38399;SDS011;24180;42.676;23.320;2024-01-07T04:05:42;5.10;;;4.55;;
38399;SDS011;24180;42.676;23.320;2024-01-07T04:08:10;6.25;;;4.47;;
38399;SDS011;24180;42.676;23.320;2024-01-07T04:10:36;4.28;;;3.95;;
38399;SDS011;24180;42.676;23.320;2024-01-07T04:13:02;6.10;;;4.07;;
38399;SDS011;24180;42.676;23.320;2024-01-07T04:15:27;5.80;;;4.50;;
38399;SDS011;24180;42.676;23.320;2024-01-07T04:17:52;7.40;;;5.07;;
38399;SDS011;24180;42.676;23.320;2024-01-07T04:20:18;6.00;;;5.40;;
38399;SDS011;24180;42.676;23.320;2024-01-07T04:22:43;4.53;;;4.18;;
38399;SDS011;24180;42.676;23.320;2024-01-07T04:25:09;8.52;;;7.63;;
38399;SDS011;24180;42.676;23.320;2024-01-07T04:27:35;6.43;;;5.82;;
38399;SDS011;24180;42.676;23.320;2024-01-07T04:30:02;8.07;;;6.70;;
38399;SDS011;24180;42.676;23.320;2024-01-07T04:32:27;8.07;;;5.53;;
38399;SDS011;24180;42.676;23.320;2024-01-07T04:34:54;8.05;;;5.70;;
38399;SDS011;24180;42.676;23.320;2024-01-07T04:37:19;5.00;;;4.57;;
38399;SDS011;24180;42.676;23.320;2024-01-07T04:39:45;5.80;;;5.25;;
38399;SDS011;24180;42.676;23.320;2024-01-07T04:42:10;8.25;;;5.45;;
38399;SDS011;24180;42.676;23.320;2024-01-07T04:44:36;7.05;;;5.82;;
38399;SDS011;24180;42.676;23.320;2024-01-07T04:47:01;5.53;;;5.00;;
38399;SDS011;24180;42.676;23.320;2024-01-07T04:49:45;7.22;;;6.43;;
38399;SDS011;24180;42.676;23.320;2024-01-07T04:52:11;6.53;;;5.38;;
38399;SDS011;24180;42.676;23.320;2024-01-07T04:54:36;7.90;;;4.95;;
38399;SDS011;24180;42.676;23.320;2024-01-07T04:57:02;10.18;;;6.25;;
38399;SDS011;24180;42.676;23.320;2024-01-07T04:59:27;8.20;;;7.28;;
38399;SDS011;24180;42.676;23.320;2024-01-07T05:01:53;7.82;;;5.07;;
38399;SDS011;24180;42.676;23.320;2024-01-07T05:04:18;6.03;;;5.43;;
38399;SDS011;24180;42.676;23.320;2024-01-07T05:06:44;10.60;;;8.75;;
38399;SDS011;24180;42.676;23.320;2024-01-07T05:09:10;12.00;;;6.57;;
38399;SDS011;24180;42.676;23.320;2024-01-07T05:11:39;8.38;;;4.93;;
38399;SDS011;24180;42.676;23.320;2024-01-07T05:14:05;5.68;;;5.15;;
38399;SDS011;24180;42.676;23.320;2024-01-07T05:16:30;10.30;;;7.72;;
38399;SDS011;24180;42.676;23.320;2024-01-07T05:18:56;11.18;;;8.52;;
38399;SDS011;24180;42.676;23.320;2024-01-07T05:21:22;12.55;;;8.70;;
38399;SDS011;24180;42.676;23.320;2024-01-07T05:23:47;8.98;;;6.25;;
38399;SDS011;24180;42.676;23.320;2024-01-07T05:26:13;8.32;;;5.88;;
38399;SDS011;24180;42.676;23.320;2024-01-07T05:28:38;8.10;;;6.80;;
38399;SDS011;24180;42.676;23.320;2024-01-07T05:31:04;7.95;;;5.57;;
38399;SDS011;24180;42.676;23.320;2024-01-07T05:33:29;7.70;;;6.57;;
38399;SDS011;24180;42.676;23.320;2024-01-07T05:35:55;6.90;;;5.72;;
38399;SDS011;24180;42.676;23.320;2024-01-07T05:38:20;10.68;;;8.10;;
38399;SDS011;24180;42.676;23.320;2024-01-07T05:40:46;9.60;;;7.70;;
38399;SDS011;24180;42.676;23.320;2024-01-07T05:43:11;9.82;;;6.20;;
38399;SDS011;24180;42.676;23.320;2024-01-07T05:45:36;8.95;;;6.03;;
38399;SDS011;24180;42.676;23.320;2024-01-07T05:48:02;7.18;;;6.18;;
38399;SDS011;24180;42.676;23.320;2024-01-07T05:50:28;9.63;;;6.65;;
38399;SDS011;24180;42.676;23.320;2024-01-07T05:52:53;8.32;;;7.05;;
38399;SDS011;24180;42.676;23.320;2024-01-07T05:55:19;7.03;;;6.22;;
38399;SDS011;24180;42.676;23.320;2024-01-07T05:57:44;8.27;;;6.18;;
38399;SDS011;24180;42.676;23.320;2024-01-07T06:00:10;13.73;;;9.23;;
38399;SDS011;24180;42.676;23.320;2024-01-07T06:02:37;9.20;;;7.32;;
38399;SDS011;24180;42.676;23.320;2024-01-07T06:05:03;10.25;;;6.45;;
38399;SDS011;24180;42.676;23.320;2024-01-07T06:07:29;8.30;;;5.60;;
38399;SDS011;24180;42.676;23.320;2024-01-07T06:09:54;7.20;;;6.22;;
38399;SDS011;24180;42.676;23.320;2024-01-07T06:12:20;7.18;;;6.57;;
38399;SDS011;24180;42.676;23.320;2024-01-07T06:14:45;7.40;;;6.70;;
38399;SDS011;24180;42.676;23.320;2024-01-07T06:17:11;8.15;;;6.70;;
38399;SDS011;24180;42.676;23.320;2024-01-07T06:19:36;10.32;;;7.45;;
38399;SDS011;24180;42.676;23.320;2024-01-07T06:22:02;9.43;;;6.60;;
38399;SDS011;24180;42.676;23.320;2024-01-07T06:24:27;8.85;;;5.97;;
38399;SDS011;24180;42.676;23.320;2024-01-07T06:26:53;8.13;;;7.15;;
38399;SDS011;24180;42.676;23.320;2024-01-07T06:29:18;10.23;;;7.25;;
38399;SDS011;24180;42.676;23.320;2024-01-07T06:31:44;9.50;;;6.63;;
38399;SDS011;24180;42.676;23.320;2024-01-07T06:34:10;12.27;;;8.93;;
38399;SDS011;24180;42.676;23.320;2024-01-07T06:36:38;7.28;;;6.05;;
38399;SDS011;24180;42.676;23.320;2024-01-07T06:39:04;9.00;;;6.60;;
38399;SDS011;24180;42.676;23.320;2024-01-07T06:41:30;8.70;;;7.60;;
38399;SDS011;24180;42.676;23.320;2024-01-07T06:43:55;12.23;;;9.35;;
38399;SDS011;24180;42.676;23.320;2024-01-07T06:46:22;14.05;;;10.38;;
38399;SDS011;24180;42.676;23.320;2024-01-07T06:48:47;12.45;;;8.30;;
38399;SDS011;24180;42.676;23.320;2024-01-07T06:51:13;17.83;;;10.65;;
38399;SDS011;24180;42.676;23.320;2024-01-07T06:53:58;13.38;;;9.15;;
38399;SDS011;24180;42.676;23.320;2024-01-07T06:56:23;10.77;;;8.38;;
38399;SDS011;24180;42.676;23.320;2024-01-07T06:58:49;22.73;;;11.45;;
38399;SDS011;24180;42.676;23.320;2024-01-07T07:01:17;20.10;;;12.65;;
38399;SDS011;24180;42.676;23.320;2024-01-07T07:03:46;13.85;;;9.82;;
38399;SDS011;24180;42.676;23.320;2024-01-07T07:06:12;16.48;;;11.27;;
38399;SDS011;24180;42.676;23.320;2024-01-07T07:08:38;15.70;;;12.35;;
38399;SDS011;24180;42.676;23.320;2024-01-07T07:11:03;16.50;;;11.75;;
38399;SDS011;24180;42.676;23.320;2024-01-07T07:13:29;13.35;;;9.13;;
38399;SDS011;24180;42.676;23.320;2024-01-07T07:15:54;16.45;;;8.63;;
38399;SDS011;24180;42.676;23.320;2024-01-07T07:18:20;13.57;;;7.72;;
38399;SDS011;24180;42.676;23.320;2024-01-07T07:20:45;12.32;;;7.93;;
38399;SDS011;24180;42.676;23.320;2024-01-07T07:23:10;11.68;;;8.07;;
38399;SDS011;24180;42.676;23.320;2024-01-07T07:25:36;11.80;;;8.63;;
38399;SDS011;24180;42.676;23.320;2024-01-07T07:28:02;13.40;;;9.25;;
38399;SDS011;24180;42.676;23.320;2024-01-07T07:30:28;9.50;;;7.78;;
38399;SDS011;24180;42.676;23.320;2024-01-07T07:32:54;10.70;;;7.03;;
38399;SDS011;24180;42.676;23.320;2024-01-07T07:35:20;10.18;;;6.90;;
38399;SDS011;24180;42.676;23.320;2024-01-07T07:37:45;7.78;;;6.45;;
38399;SDS011;24180;42.676;23.320;2024-01-07T07:40:11;11.27;;;9.35;;
38399;SDS011;24180;42.676;23.320;2024-01-07T07:42:38;10.70;;;7.75;;
38399;SDS011;24180;42.676;23.320;2024-01-07T07:45:04;12.48;;;7.53;;
38399;SDS011;24180;42.676;23.320;2024-01-07T07:47:30;11.75;;;7.63;;
38399;SDS011;24180;42.676;23.320;2024-01-07T07:49:56;9.82;;;6.85;;
38399;SDS011;24180;42.676;23.320;2024-01-07T07:52:22;8.43;;;7.35;;
38399;SDS011;24180;42.676;23.320;2024-01-07T07:54:50;11.52;;;8.23;;
38399;SDS011;24180;42.676;23.320;2024-01-07T07:57:18;8.27;;;7.00;;
38399;SDS011;24180;42.676;23.320;2024-01-07T07:59:46;10.75;;;5.97;;
38399;SDS011;24180;42.676;23.320;2024-01-07T08:02:12;13.27;;;7.70;;
38399;SDS011;24180;42.676;23.320;2024-01-07T08:04:38;9.40;;;8.18;;
38399;SDS011;24180;42.676;23.320;2024-01-07T08:07:06;9.68;;;7.10;;
38399;SDS011;24180;42.676;23.320;2024-01-07T08:09:32;9.25;;;7.68;;
38399;SDS011;24180;42.676;23.320;2024-01-07T08:11:57;11.15;;;7.13;;
38399;SDS011;24180;42.676;23.320;2024-01-07T08:14:23;11.25;;;8.35;;
38399;SDS011;24180;42.676;23.320;2024-01-07T08:16:49;6.80;;;6.10;;
38399;SDS011;24180;42.676;23.320;2024-01-07T08:19:14;6.47;;;5.82;;
38399;SDS011;24180;42.676;23.320;2024-01-07T08:21:39;9.55;;;6.53;;
38399;SDS011;24180;42.676;23.320;2024-01-07T08:24:05;7.78;;;6.45;;
38399;SDS011;24180;42.676;23.320;2024-01-07T08:26:30;6.85;;;6.15;;
38399;SDS011;24180;42.676;23.320;2024-01-07T08:28:56;8.48;;;6.78;;
38399;SDS011;24180;42.676;23.320;2024-01-07T08:31:22;7.00;;;5.70;;
38399;SDS011;24180;42.676;23.320;2024-01-07T08:33:47;11.05;;;6.65;;
38399;SDS011;24180;42.676;23.320;2024-01-07T08:36:13;8.85;;;7.43;;
38399;SDS011;24180;42.676;23.320;2024-01-07T08:38:38;12.27;;;7.00;;
38399;SDS011;24180;42.676;23.320;2024-01-07T08:41:03;11.57;;;8.27;;
38399;SDS011;24180;42.676;23.320;2024-01-07T08:43:29;10.18;;;7.90;;
38399;SDS011;24180;42.676;23.320;2024-01-07T08:45:55;8.65;;;6.72;;
38399;SDS011;24180;42.676;23.320;2024-01-07T08:48:20;8.20;;;7.13;;
38399;SDS011;24180;42.676;23.320;2024-01-07T08:50:46;8.45;;;6.97;;
38399;SDS011;24180;42.676;23.320;2024-01-07T08:53:11;8.73;;;6.78;;
38399;SDS011;24180;42.676;23.320;2024-01-07T08:55:37;8.02;;;6.70;;
38399;SDS011;24180;42.676;23.320;2024-01-07T08:58:03;6.00;;;5.38;;
38399;SDS011;24180;42.676;23.320;2024-01-07T09:00:28;9.65;;;6.75;;
38399;SDS011;24180;42.676;23.320;2024-01-07T09:02:56;8.02;;;6.90;;
38399;SDS011;24180;42.676;23.320;2024-01-07T09:05:22;7.78;;;6.85;;
38399;SDS011;24180;42.676;23.320;2024-01-07T09:10:14;10.15;;;6.80;;
38399;SDS011;24180;42.676;23.320;2024-01-07T09:12:40;9.88;;;7.47;;
38399;SDS011;24180;42.676;23.320;2024-01-07T09:15:06;9.38;;;7.45;;
38399;SDS011;24180;42.676;23.320;2024-01-07T09:19:59;8.95;;;7.82;;
38399;SDS011;24180;42.676;23.320;2024-01-07T09:22:25;9.68;;;7.50;;
38399;SDS011;24180;42.676;23.320;2024-01-07T09:24:50;8.27;;;6.30;;
38399;SDS011;24180;42.676;23.320;2024-01-07T09:27:16;9.85;;;7.60;;
38399;SDS011;24180;42.676;23.320;2024-01-07T09:29:41;7.72;;;6.93;;
38399;SDS011;24180;42.676;23.320;2024-01-07T09:32:07;6.82;;;6.22;;
38399;SDS011;24180;42.676;23.320;2024-01-07T09:34:32;8.48;;;7.28;;
38399;SDS011;24180;42.676;23.320;2024-01-07T09:36:57;16.83;;;7.82;;
38399;SDS011;24180;42.676;23.320;2024-01-07T09:39:23;7.22;;;6.53;;
38399;SDS011;24180;42.676;23.320;2024-01-07T09:41:48;7.18;;;6.47;;
38399;SDS011;24180;42.676;23.320;2024-01-07T09:44:14;9.05;;;7.10;;
38399;SDS011;24180;42.676;23.320;2024-01-07T09:46:40;8.52;;;6.65;;
38399;SDS011;24180;42.676;23.320;2024-01-07T09:49:07;15.15;;;10.27;;
38399;SDS011;24180;42.676;23.320;2024-01-07T09:51:34;12.43;;;8.85;;
38399;SDS011;24180;42.676;23.320;2024-01-07T09:54:02;8.23;;;6.82;;
38399;SDS011;24180;42.676;23.320;2024-01-07T09:56:42;10.30;;;6.97;;
38399;SDS011;24180;42.676;23.320;2024-01-07T09:59:14;10.27;;;6.70;;
38399;SDS011;24180;42.676;23.320;2024-01-07T10:01:41;11.82;;;8.40;;
38399;SDS011;24180;42.676;23.320;2024-01-07T10:06:33;7.10;;;5.88;;
38399;SDS011;24180;42.676;23.320;2024-01-07T10:08:59;7.85;;;6.78;;
38399;SDS011;24180;42.676;23.320;2024-01-07T10:11:24;7.82;;;6.63;;
38399;SDS011;24180;42.676;23.320;2024-01-07T10:13:49;8.60;;;6.40;;
38399;SDS011;24180;42.676;23.320;2024-01-07T10:16:18;11.27;;;7.68;;
38399;SDS011;24180;42.676;23.320;2024-01-07T10:18:43;12.38;;;8.43;;
38399;SDS011;24180;42.676;23.320;2024-01-07T10:21:09;10.02;;;8.20;;
38399;SDS011;24180;42.676;23.320;2024-01-07T10:23:34;9.73;;;7.38;;
38399;SDS011;24180;42.676;23.320;2024-01-07T10:26:00;7.35;;;6.13;;
38399;SDS011;24180;42.676;23.320;2024-01-07T10:28:27;9.63;;;6.28;;
38399;SDS011;24180;42.676;23.320;2024-01-07T10:30:53;5.30;;;4.93;;
38399;SDS011;24180;42.676;23.320;2024-01-07T10:33:18;4.70;;;4.30;;
38399;SDS011;24180;42.676;23.320;2024-01-07T10:35:48;4.90;;;4.28;;
38399;SDS011;24180;42.676;23.320;2024-01-07T10:38:22;7.43;;;4.40;;
38399;SDS011;24180;42.676;23.320;2024-01-07T10:40:48;5.75;;;5.15;;
38399;SDS011;24180;42.676;23.320;2024-01-07T10:43:17;5.57;;;4.95;;
38399;SDS011;24180;42.676;23.320;2024-01-07T10:45:44;6.85;;;6.07;;
38399;SDS011;24180;42.676;23.320;2024-01-07T10:48:13;5.53;;;5.05;;
38399;SDS011;24180;42.676;23.320;2024-01-07T10:50:44;4.93;;;4.43;;
38399;SDS011;24180;42.676;23.320;2024-01-07T10:53:11;4.72;;;4.30;;
38399;SDS011;24180;42.676;23.320;2024-01-07T10:55:43;4.57;;;4.18;;
38399;SDS011;24180;42.676;23.320;2024-01-07T10:58:19;4.15;;;3.78;;
38399;SDS011;24180;42.676;23.320;2024-01-07T11:00:46;4.07;;;3.53;;
38399;SDS011;24180;42.676;23.320;2024-01-07T11:05:59;3.13;;;2.97;;
38399;SDS011;24180;42.676;23.320;2024-01-07T11:08:34;3.55;;;3.30;;
38399;SDS011;24180;42.676;23.320;2024-01-07T11:11:07;4.30;;;3.90;;
38399;SDS011;24180;42.676;23.320;2024-01-07T11:13:41;6.47;;;5.10;;
38399;SDS011;24180;42.676;23.320;2024-01-07T11:16:07;6.55;;;5.85;;
38399;SDS011;24180;42.676;23.320;2024-01-07T11:18:39;6.28;;;5.57;;
38399;SDS011;24180;42.676;23.320;2024-01-07T11:21:20;5.43;;;4.93;;
38399;SDS011;24180;42.676;23.320;2024-01-07T11:23:47;5.75;;;5.15;;
38399;SDS011;24180;42.676;23.320;2024-01-07T11:26:12;6.20;;;5.18;;
38399;SDS011;24180;42.676;23.320;2024-01-07T11:31:10;6.88;;;4.57;;
38399;SDS011;24180;42.676;23.320;2024-01-07T11:33:39;3.72;;;3.50;;
38399;SDS011;24180;42.676;23.320;2024-01-07T11:36:13;3.53;;;3.20;;
38399;SDS011;24180;42.676;23.320;2024-01-07T11:38:45;3.60;;;3.40;;
38399;SDS011;24180;42.676;23.320;2024-01-07T11:41:14;5.70;;;3.78;;
38399;SDS011;24180;42.676;23.320;2024-01-07T11:43:58;3.95;;;2.95;;
38399;SDS011;24180;42.676;23.320;2024-01-07T11:46:28;4.97;;;3.17;;
38399;SDS011;24180;42.676;23.320;2024-01-07T11:48:57;4.03;;;3.20;;
38399;SDS011;24180;42.676;23.320;2024-01-07T11:51:24;5.00;;;3.22;;
38399;SDS011;24180;42.676;23.320;2024-01-07T11:53:54;4.38;;;3.25;;
38399;SDS011;24180;42.676;23.320;2024-01-07T11:56:20;3.67;;;3.42;;
38399;SDS011;24180;42.676;23.320;2024-01-07T11:58:45;3.13;;;2.92;;
38399;SDS011;24180;42.676;23.320;2024-01-07T12:01:11;6.88;;;3.13;;
38399;SDS011;24180;42.676;23.320;2024-01-07T12:03:36;4.47;;;3.85;;
38399;SDS011;24180;42.676;23.320;2024-01-07T12:06:03;3.60;;;3.40;;
38399;SDS011;24180;42.676;23.320;2024-01-07T12:10:55;6.55;;;4.28;;
38399;SDS011;24180;42.676;23.320;2024-01-07T12:13:22;5.95;;;3.42;;
38399;SDS011;24180;42.676;23.320;2024-01-07T12:15:47;4.13;;;3.83;;
38399;SDS011;24180;42.676;23.320;2024-01-07T12:18:13;5.50;;;5.10;;
38399;SDS011;24180;42.676;23.320;2024-01-07T12:20:39;5.75;;;5.35;;
38399;SDS011;24180;42.676;23.320;2024-01-07T12:23:08;6.05;;;4.45;;
38399;SDS011;24180;42.676;23.320;2024-01-07T12:25:35;4.78;;;4.38;;
38399;SDS011;24180;42.676;23.320;2024-01-07T12:28:01;6.03;;;4.55;;
38399;SDS011;24180;42.676;23.320;2024-01-07T12:30:27;5.80;;;4.80;;
38399;SDS011;24180;42.676;23.320;2024-01-07T12:32:53;5.60;;;5.10;;
38399;SDS011;24180;42.676;23.320;2024-01-07T12:35:19;7.63;;;4.78;;
38399;SDS011;24180;42.676;23.320;2024-01-07T12:37:44;5.47;;;4.63;;
38399;SDS011;24180;42.676;23.320;2024-01-07T12:40:11;6.55;;;4.47;;
38399;SDS011;24180;42.676;23.320;2024-01-07T12:42:37;4.60;;;4.10;;
38399;SDS011;24180;42.676;23.320;2024-01-07T12:45:09;5.53;;;5.10;;
38399;SDS011;24180;42.676;23.320;2024-01-07T12:47:35;25.15;;;20.02;;
38399;SDS011;24180;42.676;23.320;2024-01-07T12:50:01;8.57;;;6.32;;
38399;SDS011;24180;42.676;23.320;2024-01-07T12:52:27;6.72;;;5.35;;
38399;SDS011;24180;42.676;23.320;2024-01-07T12:54:53;5.20;;;4.63;;
38399;SDS011;24180;42.676;23.320;2024-01-07T12:57:20;5.15;;;4.07;;
38399;SDS011;24180;42.676;23.320;2024-01-07T12:59:47;16.35;;;9.75;;
38399;SDS011;24180;42.676;23.320;2024-01-07T13:02:12;6.07;;;5.40;;
38399;SDS011;24180;42.676;23.320;2024-01-07T13:04:38;4.32;;;4.03;;
38399;SDS011;24180;42.676;23.320;2024-01-07T13:07:03;4.63;;;4.03;;
38399;SDS011;24180;42.676;23.320;2024-01-07T13:09:29;4.43;;;3.60;;
38399;SDS011;24180;42.676;23.320;2024-01-07T13:11:54;4.70;;;3.58;;
38399;SDS011;24180;42.676;23.320;2024-01-07T13:14:20;4.28;;;3.75;;
38399;SDS011;24180;42.676;23.320;2024-01-07T13:16:48;4.47;;;4.07;;
38399;SDS011;24180;42.676;23.320;2024-01-07T13:19:14;5.15;;;4.65;;
38399;SDS011;24180;42.676;23.320;2024-01-07T13:21:39;5.18;;;3.85;;
38399;SDS011;24180;42.676;23.320;2024-01-07T13:24:05;6.85;;;4.57;;
38399;SDS011;24180;42.676;23.320;2024-01-07T13:26:30;6.88;;;4.72;;
38399;SDS011;24180;42.676;23.320;2024-01-07T13:28:56;7.28;;;4.80;;
38399;SDS011;24180;42.676;23.320;2024-01-07T13:31:21;5.20;;;4.70;;
38399;SDS011;24180;42.676;23.320;2024-01-07T13:33:48;6.40;;;5.50;;
38399;SDS011;24180;42.676;23.320;2024-01-07T13:36:14;5.22;;;4.82;;
38399;SDS011;24180;42.676;23.320;2024-01-07T13:38:39;4.70;;;4.30;;
38399;SDS011;24180;42.676;23.320;2024-01-07T13:41:07;5.68;;;5.15;;
38399;SDS011;24180;42.676;23.320;2024-01-07T13:43:33;6.65;;;5.68;;
38399;SDS011;24180;42.676;23.320;2024-01-07T13:45:59;9.80;;;5.75;;
38399;SDS011;24180;42.676;23.320;2024-01-07T13:48:25;7.28;;;6.07;;
38399;SDS011;24180;42.676;23.320;2024-01-07T13:50:51;9.13;;;6.00;;
38399;SDS011;24180;42.676;23.320;2024-01-07T13:53:18;8.90;;;7.13;;
38399;SDS011;24180;42.676;23.320;2024-01-07T13:55:44;8.55;;;6.35;;
38399;SDS011;24180;42.676;23.320;2024-01-07T13:58:11;7.20;;;5.93;;
38399;SDS011;24180;42.676;23.320;2024-01-07T14:00:37;8.55;;;5.15;;
38399;SDS011;24180;42.676;23.320;2024-01-07T14:03:03;5.30;;;4.93;;
38399;SDS011;24180;42.676;23.320;2024-01-07T14:05:29;5.85;;;5.35;;
38399;SDS011;24180;42.676;23.320;2024-01-07T14:07:54;4.82;;;4.22;;
38399;SDS011;24180;42.676;23.320;2024-01-07T14:10:19;6.50;;;4.55;;
38399;SDS011;24180;42.676;23.320;2024-01-07T14:12:45;9.30;;;5.53;;
38399;SDS011;24180;42.676;23.320;2024-01-07T14:15:11;5.55;;;4.82;;
38399;SDS011;24180;42.676;23.320;2024-01-07T14:17:36;6.93;;;6.20;;
38399;SDS011;24180;42.676;23.320;2024-01-07T14:20:02;7.65;;;5.68;;
38399;SDS011;24180;42.676;23.320;2024-01-07T14:22:28;8.27;;;5.88;;
38399;SDS011;24180;42.676;23.320;2024-01-07T14:24:54;8.95;;;6.13;;
38399;SDS011;24180;42.676;23.320;2024-01-07T14:27:19;7.88;;;5.30;;
38399;SDS011;24180;42.676;23.320;2024-01-07T14:29:45;6.68;;;5.25;;
38399;SDS011;24180;42.676;23.320;2024-01-07T14:32:11;7.32;;;5.97;;
38399;SDS011;24180;42.676;23.320;2024-01-07T14:34:39;6.63;;;5.68;;